sensor_id;sensor_type;location;lat;lon;timestamp;pressure;altitude;pressure_sealevel;temperature;humidity
23574;BME280;11965;53.640;10.050;2022-12-04T00:01:23;102186.78;;;-0.50;90.30
23574;BME280;11965;53.640;10.050;2022-12-04T00:03:52;102187.84;;;-0.52;92.67
23574;BME280;11965;53.640;10.050;2022-12-04T00:06:22;102194.34;;;-0.55;91.53
23574;BME280;11965;53.640;10.050;2022-12-04T00:08:51;102188.09;;;-0.57;91.39
23574;BME280;11965;53.640;10.050;2022-12-04T00:11:21;102187.84;;;-0.52;91.54
23574;BME280;11965;53.640;10.050;2022-12-04T00:13:49;102191.44;;;-0.52;91.85
23574;BME280;11965;53.640;10.050;2022-12-04T00:16:19;102184.88;;;-0.48;90.71
23574;BME280;11965;53.640;10.050;2022-12-04T00:18:46;102191.63;;;-0.55;91.42
23574;BME280;11965;53.640;10.050;2022-12-04T00:21:15;102187.34;;;-0.59;92.10
23574;BME280;11965;53.640;10.050;2022-12-04T00:23:45;102198.06;;;-0.56;92.23
23574;BME280;11965;53.640;10.050;2022-12-04T00:26:14;102194.47;;;-0.56;90.32
23574;BME280;11965;53.640;10.050;2022-12-04T00:28:42;102190.84;;;-0.57;92.78
23574;BME280;11965;53.640;10.050;2022-12-04T00:31:13;102193.28;;;-0.52;93.25
23574;BME280;11965;53.640;10.050;2022-12-04T00:33:41;102188.81;;;-0.37;90.10
23574;BME280;11965;53.640;10.050;2022-12-04T00:36:11;102185.66;;;-0.46;90.45
23574;BME280;11965;53.640;10.050;2022-12-04T00:38:38;102187.59;;;-0.48;92.34
23574;BME280;11965;53.640;10.050;2022-12-04T00:41:09;102186.53;;;-0.45;92.28
23574;BME280;11965;53.640;10.050;2022-12-04T00:43:37;102177.63;;;-0.49;91.66
23574;BME280;11965;53.640;10.050;2022-12-04T00:46:04;102185.91;;;-0.50;92.38
23574;BME280;11965;53.640;10.050;2022-12-04T00:48:32;102186.53;;;-0.45;92.37
23574;BME280;11965;53.640;10.050;2022-12-04T00:51:01;102191.69;;;-0.40;92.42
23574;BME280;11965;53.640;10.050;2022-12-04T00:53:29;102185.91;;;-0.34;92.24
23574;BME280;11965;53.640;10.050;2022-12-04T00:55:56;102191.41;;;-0.36;91.82
23574;BME280;11965;53.640;10.050;2022-12-04T00:58:25;102183.09;;;-0.49;92.77
23574;BME280;11965;53.640;10.050;2022-12-04T01:01:01;102180.28;;;-0.47;92.60
23574;BME280;11965;53.640;10.050;2022-12-04T01:03:28;102178.97;;;-0.40;91.66
23574;BME280;11965;53.640;10.050;2022-12-04T01:05:55;102180.22;;;-0.46;93.40
23574;BME280;11965;53.640;10.050;2022-12-04T01:08:22;102178.34;;;-0.45;93.87
23574;BME280;11965;53.640;10.050;2022-12-04T01:10:49;102178.25;;;-0.43;94.40
23574;BME280;11965;53.640;10.050;2022-12-04T01:13:17;102177.31;;;-0.42;93.66
23574;BME280;11965;53.640;10.050;2022-12-04T01:15:46;102178.84;;;-0.38;94.27
23574;BME280;11965;53.640;10.050;2022-12-04T01:18:14;102182.44;;;-0.38;94.27
23574;BME280;11965;53.640;10.050;2022-12-04T01:20:46;102182.31;;;-0.35;94.17
23574;BME280;11965;53.640;10.050;2022-12-04T01:23:15;102181.25;;;-0.32;93.67
23574;BME280;11965;53.640;10.050;2022-12-04T01:25:49;102185.03;;;-0.35;95.76
23574;BME280;11965;53.640;10.050;2022-12-04T01:28:17;102183.34;;;-0.37;94.39
23574;BME280;11965;53.640;10.050;2022-12-04T01:30:56;102181.31;;;-0.34;94.86
23574;BME280;11965;53.640;10.050;2022-12-04T01:33:23;102179.66;;;-0.36;95.01
23574;BME280;11965;53.640;10.050;2022-12-04T01:35:53;102171.84;;;-0.42;95.62
23574;BME280;11965;53.640;10.050;2022-12-04T01:38:21;102176.06;;;-0.37;95.33
23574;BME280;11965;53.640;10.050;2022-12-04T01:40:50;102185.03;;;-0.35;96.14
23574;BME280;11965;53.640;10.050;2022-12-04T01:43:19;102178.13;;;-0.26;93.41
23574;BME280;11965;53.640;10.050;2022-12-04T01:45:51;102163.91;;;-0.31;94.25
23574;BME280;11965;53.640;10.050;2022-12-04T01:48:25;102173.16;;;-0.34;95.79
23574;BME280;11965;53.640;10.050;2022-12-04T01:50:58;102163.75;;;-0.44;97.19
23574;BME280;11965;53.640;10.050;2022-12-04T01:53:28;102164.59;;;-0.28;94.72
23574;BME280;11965;53.640;10.050;2022-12-04T01:55:56;102170.59;;;-0.37;94.97
23574;BME280;11965;53.640;10.050;2022-12-04T01:58:30;102172.34;;;-0.36;94.97
23574;BME280;11965;53.640;10.050;2022-12-04T02:01:04;102169.81;;;-0.39;95.03
23574;BME280;11965;53.640;10.050;2022-12-04T02:03:32;102164.81;;;-0.47;97.10
23574;BME280;11965;53.640;10.050;2022-12-04T02:05:59;102169.81;;;-0.39;97.74
23574;BME280;11965;53.640;10.050;2022-12-04T02:08:27;102167.16;;;-0.40;96.94
23574;BME280;11965;53.640;10.050;2022-12-04T02:11:08;102165.75;;;-0.32;97.27
23574;BME280;11965;53.640;10.050;2022-12-04T02:13:45;102169.34;;;-0.31;97.91
23574;BME280;11965;53.640;10.050;2022-12-04T02:16:22;102166.91;;;-0.36;97.15
23574;BME280;11965;53.640;10.050;2022-12-04T02:19:00;102166.44;;;-0.28;96.25
23574;BME280;11965;53.640;10.050;2022-12-04T02:21:36;102159.25;;;-0.29;98.65
23574;BME280;11965;53.640;10.050;2022-12-04T02:24:36;102156.41;;;-0.28;98.14
23574;BME280;11965;53.640;10.050;2022-12-04T02:27:23;102149.31;;;-0.30;98.00
23574;BME280;11965;53.640;10.050;2022-12-04T02:30:01;102157.22;;;-0.26;97.14
23574;BME280;11965;53.640;10.050;2022-12-04T02:32:38;102142.66;;;-0.40;96.60
23574;BME280;11965;53.640;10.050;2022-12-04T02:35:14;102149.41;;;-0.32;97.24
23574;BME280;11965;53.640;10.050;2022-12-04T02:37:45;102144.03;;;-0.33;96.80
23574;BME280;11965;53.640;10.050;2022-12-04T02:40:20;102138.72;;;-0.35;99.10
23574;BME280;11965;53.640;10.050;2022-12-04T02:42:57;102146.78;;;-0.33;98.13
23574;BME280;11965;53.640;10.050;2022-12-04T02:45:32;102141.59;;;-0.38;98.93
23574;BME280;11965;53.640;10.050;2022-12-04T02:48:05;102142.56;;;-0.39;99.61
23574;BME280;11965;53.640;10.050;2022-12-04T02:50:37;102141.44;;;-0.35;97.15
23574;BME280;11965;53.640;10.050;2022-12-04T02:53:12;102140.25;;;-0.31;97.87
23574;BME280;11965;53.640;10.050;2022-12-04T02:55:47;102140.63;;;-0.37;98.58
23574;BME280;11965;53.640;10.050;2022-12-04T02:58:20;102139.84;;;-0.39;99.06
23574;BME280;11965;53.640;10.050;2022-12-04T03:00:54;102142.13;;;-0.31;97.63
23574;BME280;11965;53.640;10.050;2022-12-04T03:03:27;102137.53;;;-0.31;97.94
23574;BME280;11965;53.640;10.050;2022-12-04T03:06:00;102141.06;;;-0.29;98.43
23574;BME280;11965;53.640;10.050;2022-12-04T03:08:36;102150.91;;;-0.26;98.47
23574;BME280;11965;53.640;10.050;2022-12-04T03:11:05;102148.91;;;-0.38;98.07
23574;BME280;11965;53.640;10.050;2022-12-04T03:13:37;102151.16;;;-0.31;99.44
23574;BME280;11965;53.640;10.050;2022-12-04T03:16:11;102149.72;;;-0.22;97.43
23574;BME280;11965;53.640;10.050;2022-12-04T03:18:47;102153.50;;;-0.25;97.60
23574;BME280;11965;53.640;10.050;2022-12-04T03:21:19;102149.75;;;-0.38;99.43
23574;BME280;11965;53.640;10.050;2022-12-04T03:23:54;102147.75;;;-0.34;100.00
23574;BME280;11965;53.640;10.050;2022-12-04T03:26:26;102145.03;;;-0.34;99.55
23574;BME280;11965;53.640;10.050;2022-12-04T03:28:58;102145.22;;;-0.37;100.00
23574;BME280;11965;53.640;10.050;2022-12-04T03:31:38;102151.34;;;-0.34;99.82
23574;BME280;11965;53.640;10.050;2022-12-04T03:34:07;102147.75;;;-0.34;100.00
23574;BME280;11965;53.640;10.050;2022-12-04T03:36:38;102145.03;;;-0.34;99.64
23574;BME280;11965;53.640;10.050;2022-12-04T03:39:19;102150.44;;;-0.18;98.57
23574;BME280;11965;53.640;10.050;2022-12-04T03:41:57;102152.81;;;-0.28;100.00
23574;BME280;11965;53.640;10.050;2022-12-04T03:44:33;102150.97;;;-0.28;99.51
23574;BME280;11965;53.640;10.050;2022-12-04T03:47:07;102142.78;;;-0.28;99.39
23574;BME280;11965;53.640;10.050;2022-12-04T03:49:43;102146.44;;;-0.13;97.44
23574;BME280;11965;53.640;10.050;2022-12-04T03:52:19;102140.41;;;-0.18;97.72
23574;BME280;11965;53.640;10.050;2022-12-04T03:54:54;102147.78;;;-0.20;98.73
23574;BME280;11965;53.640;10.050;2022-12-04T03:57:27;102143.00;;;-0.16;98.76
23574;BME280;11965;53.640;10.050;2022-12-04T04:00:04;102139.72;;;-0.21;99.79
23574;BME280;11965;53.640;10.050;2022-12-04T04:02:38;102136.09;;;-0.22;100.00
23574;BME280;11965;53.640;10.050;2022-12-04T04:05:10;102135.34;;;-0.24;99.76
23574;BME280;11965;53.640;10.050;2022-12-04T04:07:43;102132.88;;;-0.29;100.00
23574;BME280;11965;53.640;10.050;2022-12-04T04:10:15;102141.13;;;-0.30;100.00
23574;BME280;11965;53.640;10.050;2022-12-04T04:12:47;102136.47;;;-0.28;100.00
23574;BME280;11965;53.640;10.050;2022-12-04T04:15:42;102137.00;;;-0.21;99.93
23574;BME280;11965;53.640;10.050;2022-12-04T04:18:31;102136.81;;;-0.18;100.00
23574;BME280;11965;53.640;10.050;2022-12-04T04:21:21;102133.75;;;-0.28;100.00
23574;BME280;11965;53.640;10.050;2022-12-04T04:24:17;102132.50;;;-0.23;99.67
23574;BME280;11965;53.640;10.050;2022-12-04T04:26:48;102134.72;;;-0.29;100.00
23574;BME280;11965;53.640;10.050;2022-12-04T04:29:15;102130.44;;;-0.19;100.00
23574;BME280;11965;53.640;10.050;2022-12-04T04:31:49;102131.97;;;-0.13;99.69
23574;BME280;11965;53.640;10.050;2022-12-04T04:34:30;102139.63;;;-0.20;100.00
23574;BME280;11965;53.640;10.050;2022-12-04T04:37:10;102131.63;;;-0.23;99.85
23574;BME280;11965;53.640;10.050;2022-12-04T04:39:47;102126.97;;;-0.21;100.00
23574;BME280;11965;53.640;10.050;2022-12-04T04:42:23;102124.97;;;-0.33;100.00
23574;BME280;11965;53.640;10.050;2022-12-04T04:44:59;102118.47;;;-0.31;100.00
23574;BME280;11965;53.640;10.050;2022-12-04T04:47:32;102134.28;;;-0.21;100.00
23574;BME280;11965;53.640;10.050;2022-12-04T04:50:07;102130.34;;;-0.32;100.00
23574;BME280;11965;53.640;10.050;2022-12-04T04:52:38;102139.66;;;-0.36;100.00
23574;BME280;11965;53.640;10.050;2022-12-04T04:55:07;102134.16;;;-0.20;100.00
23574;BME280;11965;53.640;10.050;2022-12-04T04:57:35;102127.81;;;-0.35;100.00
23574;BME280;11965;53.640;10.050;2022-12-04T05:00:04;102131.28;;;-0.33;100.00
23574;BME280;11965;53.640;10.050;2022-12-04T05:02:31;102132.41;;;-0.21;100.00
23574;BME280;11965;53.640;10.050;2022-12-04T05:04:59;102141.13;;;-0.30;100.00
23574;BME280;11965;53.640;10.050;2022-12-04T05:07:27;102144.84;;;-0.31;100.00
23574;BME280;11965;53.640;10.050;2022-12-04T05:09:54;102149.03;;;-0.26;100.00
23574;BME280;11965;53.640;10.050;2022-12-04T05:12:22;102153.63;;;-0.26;100.00
23574;BME280;11965;53.640;10.050;2022-12-04T05:14:49;102157.41;;;-0.29;100.00
23574;BME280;11965;53.640;10.050;2022-12-04T05:17:16;102160.00;;;-0.27;100.00
23574;BME280;11965;53.640;10.050;2022-12-04T05:19:43;102159.16;;;-0.28;100.00
23574;BME280;11965;53.640;10.050;2022-12-04T05:22:19;102151.97;;;-0.14;100.00
23574;BME280;11965;53.640;10.050;2022-12-04T05:24:48;102150.63;;;-0.21;100.00
23574;BME280;11965;53.640;10.050;2022-12-04T05:27:16;102154.31;;;-0.23;100.00
23574;BME280;11965;53.640;10.050;2022-12-04T05:29:43;102160.63;;;-0.22;100.00
23574;BME280;11965;53.640;10.050;2022-12-04T05:32:10;102153.75;;;-0.13;100.00
23574;BME280;11965;53.640;10.050;2022-12-04T05:34:37;102150.31;;;-0.17;100.00
23574;BME280;11965;53.640;10.050;2022-12-04T05:37:04;102144.97;;;-0.18;100.00
23574;BME280;11965;53.640;10.050;2022-12-04T05:39:31;102145.28;;;-0.09;100.00
23574;BME280;11965;53.640;10.050;2022-12-04T05:42:00;102141.75;;;-0.25;100.00
23574;BME280;11965;53.640;10.050;2022-12-04T05:44:27;102143.13;;;-0.18;100.00
23574;BME280;11965;53.640;10.050;2022-12-04T05:46:54;102148.97;;;-0.24;100.00
23574;BME280;11965;53.640;10.050;2022-12-04T05:49:21;102144.09;;;-0.19;100.00
23574;BME280;11965;53.640;10.050;2022-12-04T05:51:48;102139.88;;;-0.25;100.00
23574;BME280;11965;53.640;10.050;2022-12-04T05:54:16;102143.00;;;-0.31;100.00
23574;BME280;11965;53.640;10.050;2022-12-04T05:56:43;102143.66;;;-0.27;100.00
23574;BME280;11965;53.640;10.050;2022-12-04T05:59:13;102148.34;;;-0.29;100.00
23574;BME280;11965;53.640;10.050;2022-12-04T06:01:40;102139.81;;;-0.23;100.00
23574;BME280;11965;53.640;10.050;2022-12-04T06:04:07;102146.50;;;-0.29;100.00
23574;BME280;11965;53.640;10.050;2022-12-04T06:06:36;102154.16;;;-0.05;100.00
23574;BME280;11965;53.640;10.050;2022-12-04T06:09:05;102149.78;;;-0.08;100.00
23574;BME280;11965;53.640;10.050;2022-12-04T06:11:35;102143.63;;;-0.11;100.00
23574;BME280;11965;53.640;10.050;2022-12-04T06:14:04;102146.16;;;-0.08;100.00
23574;BME280;11965;53.640;10.050;2022-12-04T06:16:35;102144.78;;;-0.15;100.00
23574;BME280;11965;53.640;10.050;2022-12-04T06:19:05;102142.94;;;-0.15;100.00
23574;BME280;11965;53.640;10.050;2022-12-04T06:21:34;102142.16;;;-0.17;100.00
23574;BME280;11965;53.640;10.050;2022-12-04T06:24:02;102154.75;;;0.00;100.00
23574;BME280;11965;53.640;10.050;2022-12-04T06:26:30;102157.06;;;-0.08;100.00
23574;BME280;11965;53.640;10.050;2022-12-04T06:28:58;102156.28;;;-0.10;100.00
23574;BME280;11965;53.640;10.050;2022-12-04T06:31:28;102162.22;;;-0.04;100.00
23574;BME280;11965;53.640;10.050;2022-12-04T06:33:57;102168.06;;;-0.10;100.00
23574;BME280;11965;53.640;10.050;2022-12-04T06:36:25;102160.28;;;-0.16;100.00
23574;BME280;11965;53.640;10.050;2022-12-04T06:38:55;102154.94;;;-0.03;100.00
23574;BME280;11965;53.640;10.050;2022-12-04T06:41:24;102156.09;;;-0.07;100.00
23574;BME280;11965;53.640;10.050;2022-12-04T06:43:51;102163.09;;;-0.03;100.00
23574;BME280;11965;53.640;10.050;2022-12-04T06:46:21;102157.66;;;-0.03;100.00
23574;BME280;11965;53.640;10.050;2022-12-04T06:48:49;102158.44;;;-0.01;100.00
23574;BME280;11965;53.640;10.050;2022-12-04T06:51:20;102161.38;;;-0.04;100.00
23574;BME280;11965;53.640;10.050;2022-12-04T06:53:48;102162.75;;;0.03;100.00
23574;BME280;11965;53.640;10.050;2022-12-04T06:56:18;102158.38;;;0.01;100.00
23574;BME280;11965;53.640;10.050;2022-12-04T06:58:45;102161.97;;;0.01;100.00
23574;BME280;11965;53.640;10.050;2022-12-04T07:01:15;102167.69;;;0.11;100.00
23574;BME280;11965;53.640;10.050;2022-12-04T07:03:43;102170.16;;;0.15;100.00
23574;BME280;11965;53.640;10.050;2022-12-04T07:06:12;102171.88;;;0.02;100.00
23574;BME280;11965;53.640;10.050;2022-12-04T07:08:41;102172.06;;;-0.01;100.00
23574;BME280;11965;53.640;10.050;2022-12-04T07:11:09;102168.59;;;0.11;100.00
23574;BME280;11965;53.640;10.050;2022-12-04T07:13:37;102169.75;;;0.07;100.00
23574;BME280;11965;53.640;10.050;2022-12-04T07:16:06;102173.41;;;0.22;100.00
23574;BME280;11965;53.640;10.050;2022-12-04T07:18:35;102164.63;;;0.17;100.00
23574;BME280;11965;53.640;10.050;2022-12-04T07:21:06;102170.06;;;0.17;100.00
23574;BME280;11965;53.640;10.050;2022-12-04T07:23:34;102162.28;;;0.25;100.00
23574;BME280;11965;53.640;10.050;2022-12-04T07:26:08;102164.03;;;0.12;100.00
23574;BME280;11965;53.640;10.050;2022-12-04T07:28:37;102171.94;;;0.16;100.00
23574;BME280;11965;53.640;10.050;2022-12-04T07:31:06;102169.75;;;0.07;100.00
23574;BME280;11965;53.640;10.050;2022-12-04T07:33:34;102172.41;;;0.09;100.00
23574;BME280;11965;53.640;10.050;2022-12-04T07:36:04;102162.75;;;0.17;100.00
23574;BME280;11965;53.640;10.050;2022-12-04T07:38:33;102164.03;;;0.26;100.00
23574;BME280;11965;53.640;10.050;2022-12-04T07:41:04;102170.94;;;0.17;100.00
23574;BME280;11965;53.640;10.050;2022-12-04T07:43:33;102168.22;;;0.17;100.00
23574;BME280;11965;53.640;10.050;2022-12-04T07:46:05;102166.16;;;0.21;100.00
23574;BME280;11965;53.640;10.050;2022-12-04T07:48:32;102168.03;;;0.20;100.00
23574;BME280;11965;53.640;10.050;2022-12-04T07:51:03;102162.69;;;0.19;100.00
23574;BME280;11965;53.640;10.050;2022-12-04T07:53:32;102169.88;;;0.20;100.00
23574;BME280;11965;53.640;10.050;2022-12-04T07:55:59;102166.69;;;0.28;100.00
23574;BME280;11965;53.640;10.050;2022-12-04T07:58:27;102169.50;;;0.26;100.00
23574;BME280;11965;53.640;10.050;2022-12-04T08:01:04;102174.88;;;0.28;100.00
23574;BME280;11965;53.640;10.050;2022-12-04T08:03:31;102184.78;;;0.29;100.00
23574;BME280;11965;53.640;10.050;2022-12-04T08:05:59;102190.63;;;0.37;100.00
23574;BME280;11965;53.640;10.050;2022-12-04T08:08:26;102186.84;;;0.39;100.00
23574;BME280;11965;53.640;10.050;2022-12-04T08:10:54;102180.25;;;0.43;100.00
23574;BME280;11965;53.640;10.050;2022-12-04T08:13:22;102191.44;;;0.39;100.00
23574;BME280;11965;53.640;10.050;2022-12-04T08:15:50;102183.56;;;0.49;100.00
23574;BME280;11965;53.640;10.050;2022-12-04T08:18:19;102181.97;;;0.44;100.00
23574;BME280;11965;53.640;10.050;2022-12-04T08:20:46;102179.44;;;0.41;100.00
23574;BME280;11965;53.640;10.050;2022-12-04T08:23:13;102178.25;;;0.46;100.00
23574;BME280;11965;53.640;10.050;2022-12-04T08:25:40;102176.31;;;0.48;100.00
23574;BME280;11965;53.640;10.050;2022-12-04T08:28:07;102183.03;;;0.56;100.00
23574;BME280;11965;53.640;10.050;2022-12-04T08:30:34;102169.31;;;0.72;100.00
23574;BME280;11965;53.640;10.050;2022-12-04T08:33:01;102170.50;;;0.68;100.00
23574;BME280;11965;53.640;10.050;2022-12-04T08:35:30;102170.09;;;0.74;100.00
23574;BME280;11965;53.640;10.050;2022-12-04T08:37:57;102173.09;;;0.70;100.00
23574;BME280;11965;53.640;10.050;2022-12-04T08:40:24;102174.19;;;0.67;100.00
23574;BME280;11965;53.640;10.050;2022-12-04T08:42:51;102172.03;;;0.72;100.00
23574;BME280;11965;53.640;10.050;2022-12-04T08:45:18;102173.69;;;0.75;100.00
23574;BME280;11965;53.640;10.050;2022-12-04T08:47:46;102174.66;;;0.88;100.00
23574;BME280;11965;53.640;10.050;2022-12-04T08:50:13;102171.63;;;0.93;100.00
23574;BME280;11965;53.640;10.050;2022-12-04T08:52:42;102175.41;;;1.04;99.59
23574;BME280;11965;53.640;10.050;2022-12-04T08:55:09;102176.47;;;1.02;99.19
23574;BME280;11965;53.640;10.050;2022-12-04T08:57:36;102170.53;;;1.09;99.42
23574;BME280;11965;53.640;10.050;2022-12-04T09:00:05;102175.41;;;1.04;98.49
23574;BME280;11965;53.640;10.050;2022-12-04T09:02:32;102176.47;;;1.16;98.39
23574;BME280;11965;53.640;10.050;2022-12-04T09:04:59;102173.25;;;1.24;97.17
23574;BME280;11965;53.640;10.050;2022-12-04T09:07:26;102168.94;;;1.20;96.69
23574;BME280;11965;53.640;10.050;2022-12-04T09:09:55;102174.19;;;1.23;96.33
23574;BME280;11965;53.640;10.050;2022-12-04T09:12:22;102171.88;;;1.17;98.69
23574;BME280;11965;53.640;10.050;2022-12-04T09:14:50;102173.69;;;1.30;96.63
23574;BME280;11965;53.640;10.050;2022-12-04T09:17:17;102166.13;;;1.21;96.99
23574;BME280;11965;53.640;10.050;2022-12-04T09:19:44;102170.19;;;1.28;97.56
23574;BME280;11965;53.640;10.050;2022-12-04T09:22:10;102166.84;;;1.38;96.94
23574;BME280;11965;53.640;10.050;2022-12-04T09:24:37;102169.16;;;1.44;95.20
23574;BME280;11965;53.640;10.050;2022-12-04T09:27:06;102160.69;;;1.34;96.38
23574;BME280;11965;53.640;10.050;2022-12-04T09:29:39;102157.78;;;1.37;96.11
23574;BME280;11965;53.640;10.050;2022-12-04T09:32:06;102163.44;;;1.34;96.75
23574;BME280;11965;53.640;10.050;2022-12-04T09:34:34;102169.31;;;1.28;97.60
23574;BME280;11965;53.640;10.050;2022-12-04T09:37:01;102163.63;;;1.45;95.97
23574;BME280;11965;53.640;10.050;2022-12-04T09:39:29;102164.47;;;1.46;95.26
23574;BME280;11965;53.640;10.050;2022-12-04T09:42:19;102168.38;;;1.42;96.08
23574;BME280;11965;53.640;10.050;2022-12-04T09:44:57;102150.31;;;1.53;94.91
23574;BME280;11965;53.640;10.050;2022-12-04T09:47:28;102166.56;;;1.55;96.15
23574;BME280;11965;53.640;10.050;2022-12-04T09:50:03;102159.94;;;1.59;96.72
23574;BME280;11965;53.640;10.050;2022-12-04T09:52:45;102160.94;;;1.71;94.84
23574;BME280;11965;53.640;10.050;2022-12-04T09:55:19;102156.59;;;1.81;93.71
23574;BME280;11965;53.640;10.050;2022-12-04T09:57:51;102157.03;;;1.88;93.60
23574;BME280;11965;53.640;10.050;2022-12-04T10:00:20;102150.78;;;1.73;94.75
23574;BME280;11965;53.640;10.050;2022-12-04T10:02:51;102150.03;;;1.71;94.68
23574;BME280;11965;53.640;10.050;2022-12-04T10:05:34;102151.22;;;1.80;95.66
23574;BME280;11965;53.640;10.050;2022-12-04T10:08:14;102150.44;;;2.05;92.43
23574;BME280;11965;53.640;10.050;2022-12-04T10:10:55;102145.50;;;2.10;92.05
23574;BME280;11965;53.640;10.050;2022-12-04T10:13:52;102145.94;;;2.16;93.31
23574;BME280;11965;53.640;10.050;2022-12-04T10:16:35;102148.25;;;2.10;92.19
23574;BME280;11965;53.640;10.050;2022-12-04T10:19:15;102148.34;;;2.08;94.05
23574;BME280;11965;53.640;10.050;2022-12-04T10:22:01;102143.97;;;2.18;92.82
23574;BME280;11965;53.640;10.050;2022-12-04T10:24:40;102149.22;;;2.21;92.39
23574;BME280;11965;53.640;10.050;2022-12-04T10:27:16;102144.41;;;2.12;91.61
23574;BME280;11965;53.640;10.050;2022-12-04T10:29:51;102141.56;;;2.27;90.05
23574;BME280;11965;53.640;10.050;2022-12-04T10:32:22;102139.81;;;2.13;91.55
23574;BME280;11965;53.640;10.050;2022-12-04T10:34:54;102137.84;;;2.28;91.78
23574;BME280;11965;53.640;10.050;2022-12-04T10:37:23;102129.00;;;2.24;91.48
23574;BME280;11965;53.640;10.050;2022-12-04T10:39:54;102142.44;;;2.27;92.33
23574;BME280;11965;53.640;10.050;2022-12-04T10:42:34;102135.22;;;2.26;91.41
23574;BME280;11965;53.640;10.050;2022-12-04T10:45:08;102139.94;;;2.24;93.24
23574;BME280;11965;53.640;10.050;2022-12-04T10:47:42;102136.09;;;2.14;93.64
23574;BME280;11965;53.640;10.050;2022-12-04T10:50:13;102135.00;;;2.16;94.01
23574;BME280;11965;53.640;10.050;2022-12-04T10:52:42;102138.63;;;2.30;92.92
23574;BME280;11965;53.640;10.050;2022-12-04T10:55:10;102140.81;;;2.37;91.35
23574;BME280;11965;53.640;10.050;2022-12-04T10:57:39;102130.81;;;2.36;91.35
23574;BME280;11965;53.640;10.050;2022-12-04T11:03:03;102131.63;;;2.13;93.12
23574;BME280;11965;53.640;10.050;2022-12-04T11:05:52;102123.81;;;2.07;95.28
23574;BME280;11965;53.640;10.050;2022-12-04T11:08:23;102124.50;;;2.36;92.66
23574;BME280;11965;53.640;10.050;2022-12-04T11:10:59;102110.59;;;2.39;92.96
23574;BME280;11965;53.640;10.050;2022-12-04T11:13:27;102107.53;;;2.31;93.20
23574;BME280;11965;53.640;10.050;2022-12-04T11:15:56;102114.88;;;2.43;93.84
23574;BME280;11965;53.640;10.050;2022-12-04T11:18:28;102113.00;;;2.43;93.93
23574;BME280;11965;53.640;10.050;2022-12-04T11:20:59;102106.09;;;2.63;92.45
23574;BME280;11965;53.640;10.050;2022-12-04T11:23:31;102104.09;;;2.65;91.42
23574;BME280;11965;53.640;10.050;2022-12-04T11:26:00;102110.34;;;2.55;92.25
23574;BME280;11965;53.640;10.050;2022-12-04T11:28:30;102100.53;;;2.39;92.60
23574;BME280;11965;53.640;10.050;2022-12-04T11:31:02;102097.56;;;2.42;94.60
23574;BME280;11965;53.640;10.050;2022-12-04T11:33:36;102095.69;;;2.56;92.72
23574;BME280;11965;53.640;10.050;2022-12-04T11:36:18;102098.44;;;2.43;93.02
23574;BME280;11965;53.640;10.050;2022-12-04T11:38:47;102095.47;;;2.33;94.70
23574;BME280;11965;53.640;10.050;2022-12-04T11:41:24;102097.25;;;2.34;94.64
23574;BME280;11965;53.640;10.050;2022-12-04T11:43:52;102094.53;;;2.34;95.21
23574;BME280;11965;53.640;10.050;2022-12-04T11:46:22;102089.78;;;2.36;94.71
23574;BME280;11965;53.640;10.050;2022-12-04T11:48:51;102091.34;;;2.40;93.69
23574;BME280;11965;53.640;10.050;2022-12-04T11:51:33;102091.09;;;2.43;94.66
23574;BME280;11965;53.640;10.050;2022-12-04T11:54:14;102086.94;;;2.51;93.85
23574;BME280;11965;53.640;10.050;2022-12-04T11:56:54;102075.56;;;2.44;94.27
23574;BME280;11965;53.640;10.050;2022-12-04T11:59:39;102075.25;;;2.36;95.54
23574;BME280;11965;53.640;10.050;2022-12-04T12:02:31;102073.72;;;2.32;96.22
23574;BME280;11965;53.640;10.050;2022-12-04T12:05:23;102074.91;;;2.53;93.76
23574;BME280;11965;53.640;10.050;2022-12-04T12:08:06;102074.47;;;2.47;95.27
23574;BME280;11965;53.640;10.050;2022-12-04T12:10:46;102075.78;;;2.41;96.09
23574;BME280;11965;53.640;10.050;2022-12-04T12:13:28;102070.22;;;2.42;96.43
23574;BME280;11965;53.640;10.050;2022-12-04T12:16:08;102076.47;;;2.69;92.96
23574;BME280;11965;53.640;10.050;2022-12-04T12:18:56;102073.25;;;2.63;93.47
23574;BME280;11965;53.640;10.050;2022-12-04T12:21:34;102072.47;;;2.61;95.51
23574;BME280;11965;53.640;10.050;2022-12-04T12:24:19;102068.06;;;2.72;93.39
23574;BME280;11965;53.640;10.050;2022-12-04T12:29:50;102080.56;;;2.63;95.92
23574;BME280;11965;53.640;10.050;2022-12-04T12:32:54;102072.78;;;2.70;94.76
23574;BME280;11965;53.640;10.050;2022-12-04T12:35:29;102074.75;;;2.68;95.92
23574;BME280;11965;53.640;10.050;2022-12-04T12:38:01;102081.97;;;2.69;94.36
23574;BME280;11965;53.640;10.050;2022-12-04T12:40:34;102073.97;;;2.65;95.54
23574;BME280;11965;53.640;10.050;2022-12-04T12:43:06;102066.75;;;2.77;94.51
23574;BME280;11965;53.640;10.050;2022-12-04T12:45:44;102064.44;;;2.71;94.57
23574;BME280;11965;53.640;10.050;2022-12-04T12:48:24;102060.97;;;2.69;94.07
23574;BME280;11965;53.640;10.050;2022-12-04T12:50:59;102064.22;;;2.74;95.12
23574;BME280;11965;53.640;10.050;2022-12-04T12:53:36;102059.63;;;2.75;93.51
23574;BME280;11965;53.640;10.050;2022-12-04T12:56:08;102049.31;;;2.78;93.72
23574;BME280;11965;53.640;10.050;2022-12-04T12:58:44;102048.97;;;2.83;94.77
23574;BME280;11965;53.640;10.050;2022-12-04T13:01:18;102043.50;;;2.83;94.86
23574;BME280;11965;53.640;10.050;2022-12-04T13:03:56;102045.16;;;2.73;95.48
23574;BME280;11965;53.640;10.050;2022-12-04T13:06:30;102034.75;;;2.78;95.50
23574;BME280;11965;53.640;10.050;2022-12-04T13:09:08;102034.72;;;2.91;94.47
23574;BME280;11965;53.640;10.050;2022-12-04T13:11:39;102036.34;;;2.93;93.97